Flight Track Log - Related Links

Times and Time Zones

All times are in EDT time to prevent confusion due to time zone crossing. See the SKW5631 flight status page for this flight to view local times or setup timezone preferences in your user account.

Time Position Orientation Groundspeed Altitude Reporting Facility
EDT Latitude Longitude Course Direction KTS MPH feet Rate Location/Type
Sun 11:14:07 AM 37.6500 -122.3667 293° West 146 168 1,800  Level Northern Cal TRACON
Sun 11:15:07 AM 37.6667 -122.4167 293° West 190 219 3,900 2,100 Climbing Northern Cal TRACON
Sun 11:16:07 AM 37.6500 -122.4667 247° West 195 224 6,000 1,924 Climbing Northern Cal TRACON
Sun 11:17:18 AM 37.6094 -122.5378 234° Southwest 204 235 8,100 1,864 Climbing Oakland Center
Sun 11:18:19 AM 37.5542 -122.5669 203° Southwest 228 262 10,100 1,967 Climbing Oakland Center
Sun 11:19:20 AM 37.4911 -122.5525 170° South 236 272 12,100 1,747 Climbing Oakland Center
Sun 11:21:21 AM 37.3694 -122.5181 167° South 225 259 15,400 1,484 Climbing Oakland Center
Sun 11:22:22 AM 37.3069 -122.5000 167° South 228 262 16,600 1,180 Climbing Oakland Center
Sun 11:23:23 AM 37.2383 -122.4847 170° South 245 282 17,800 1,279 Climbing Oakland Center
Sun 11:24:24 AM 37.1692 -122.4667 168° South 254 292 19,200 1,352 Climbing Oakland Center
Sun 11:26:25 AM 37.0353 -122.4008 159° South 256 295 21,900 1,246 Climbing Los Angeles Center
Sun 11:27:27 AM 36.9847 -122.3475 140° Southeast 258 297 23,000 1,122 Climbing Oakland Center
Sun 11:28:28 AM 36.9283 -122.2961 144° Southeast 255 293 24,200 984 Climbing Oakland Center
Sun 11:29:29 AM 36.8619 -122.2292 141° Southeast 260 299 25,000 393 Climbing Oakland Center
Sun 11:30:30 AM 36.7969 -122.1708 144° Southeast 289 333 25,000  Level Oakland Center
Sun 11:31:31 AM 36.7311 -122.1108 144° Southeast 295 339 25,000  Level Oakland Center
Sun 11:32:32 AM 36.6658 -122.0467 142° Southeast 300 345 25,000  Level Oakland Center
Sun 11:33:33 AM 36.5994 -121.9858 144° Southeast 298 343 25,000  Level Oakland Center
Sun 11:34:34 AM 36.5342 -121.9228 142° Southeast 297 342 25,000  Level Oakland Center
Sun 11:35:35 AM 36.4678 -121.8606 143° Southeast 299 344 25,000  Level Oakland Center
Sun 11:36:36 AM 36.3989 -121.7936 142° Southeast 299 344 25,000  Level Oakland Center
Sun 11:37:37 AM 36.3319 -121.7314 143° Southeast 301 346 25,000  Level Oakland Center
Sun 11:38:38 AM 36.2653 -121.6717 144° Southeast 299 344 25,000  Level Oakland Center
Sun 11:39:39 AM 36.2003 -121.6081 142° Southeast 298 343 25,000  Level Oakland Center
Sun 11:40:40 AM 36.1336 -121.5472 144° Southeast 297 342 25,000  Level Oakland Center
Sun 11:41:41 AM 36.0689 -121.4850 142° Southeast 298 343 25,000  Level Oakland Center
Sun 11:42:42 AM 36.0025 -121.4244 144° Southeast 297 342 25,000  Level Oakland Center
Sun 11:43:43 AM 35.9369 -121.3625 143° Southeast 298 343 25,000  Level Oakland Center
Sun 11:44:44 AM 35.8578 -121.2900 143° Southeast 297 342 25,000  Level Oakland Center
Sun 11:45:46 AM 35.7922 -121.2289 143° Southeast 298 343 25,000  Level Oakland Center
Sun 11:46:47 AM 35.7239 -121.1681 144° Southeast 304 350 25,000  Level Oakland Center
Sun 11:47:48 AM 35.6544 -121.1036 143° Southeast 313 360 25,000  Level Oakland Center
Sun 11:48:49 AM 35.5842 -121.0397 144° Southeast 316 364 25,000  Level Oakland Center
Sun 11:49:50 AM 35.5133 -120.9756 144° Southeast 317 365 25,000  Level Oakland Center
Sun 11:50:51 AM 35.4431 -120.9106 143° Southeast 319 367 25,000  Level Oakland Center
Sun 11:51:52 AM 35.3728 -120.8458 143° Southeast 319 367 25,000 -229 Level Oakland Center
Sun 11:52:36 AM 35.3225 -120.8017 144° Southeast 318 366 24,600 -508 Descending Los Angeles Center
Sun 11:53:50 AM 35.2364 -120.7250 144° Southeast 319 367 24,000 -438 Descending Los Angeles Center
Sun 11:54:53 AM 35.1517 -120.6472 143° Southeast 317 365 23,600 -912 Descending Los Angeles Center
Sun 11:55:55 AM 35.0717 -120.6125 160° South 306 352 22,100 -1,258 Descending Los Angeles Center
Sun 11:56:57 AM 34.9906 -120.5794 162° South 306 352 21,000 -532 Descending Los Angeles Center
Sun 11:57:59 AM 34.9222 -120.5228 146° Southeast 307 353 21,000  Level Los Angeles Center
Sun 11:59:01 AM 34.8608 -120.4578 139° Southeast 292 336 21,000  Level Los Angeles Center
Sun 12:00:03 PM 34.8031 -120.3931 137° Southeast 282 325 21,000 -1,548 Level Los Angeles Center
Sun 12:01:05 PM 34.7383 -120.3197 137° Southeast 266 306 17,800 -3,190 Descending Los Angeles Center
Sun 12:01:22 PM 34.7189 -120.3000 140° Southeast 288 331 16,800 -3,774 Descending Los Angeles Center
Sun 12:02:07 PM 34.6761 -120.2503 136° Southeast 293 337 13,900 -3,701 Descending Los Angeles Center
Sun 12:03:09 PM 34.5986 -120.2025 153° Southeast 310 357 10,200 -3,435 Descending Los Angeles Center
Sun 12:04:11 PM 34.5267 -120.1633 156° South 295 339 6,800 -2,516 Descending Los Angeles Center
Sun 12:05:13 PM 34.4572 -120.1339 161° South 274 315 5,000 -1,701 Descending Los Angeles Center
Sun 12:06:25 PM 34.4206 -120.0614 121° Southeast 185 213 3,000 -1,258 Descending Los Angeles Center
Sun 12:07:17 PM 34.4242 -120.0094 85° East 179 206 2,400 -744 Descending Los Angeles Center
Sun 12:08:26 PM 34.4258 -119.9478 88° East 152 175 1,500 -744 Descending Los Angeles Center
Sun 12:09:26 PM 34.4253 -119.9061 91° East 131 151 800 -610 Descending Los Angeles Center
Sun 12:10:24 PM 34.4286 -119.8656 84° East 140 161 300 -517 Descending Los Angeles Center
Sun 12:12:00 PM 34.4262 -119.8415 90° East  Level Estimated

Login

Don't have an account? Register now (free) for customized features, flight alerts, and more!